Nowata, Oklahoma
Current Conditions -  °F | °C
As of 11:53 PM on Wednesday 28 Jan 2015 (Local Time) from KBVO Reporting Station
Clear Clear  
Wind Chill: 64°   Ceiling: Unl
Heat Index: 64°   Visibility: 10mi
Dew Point: 35°   Wind: 8mph
Humidity: 34%   Direction: 310°NW
Pressure: 29.96"   Gusts: 20mph
Location:  36.7°N, 95.64°W
Report Text: KBVO 290553Z AUTO 31007G17KT 280V350 10SM CLR 18/02 A2996 RMK AO2 SLP135 T01780017 10217 20161 402670000 53019
Loading
Personal Weather Stations






























Interactive Weather Map New forecast layout! Learn more

10-Day Weather Forecast

Advertisements
Track Severe Weather on mobile